Ana Sayfa
METAR-TAF:

METAR-TAF

Havaalanları :

Krasnodar Uluslararası Havalimanı

Krasnodar, Rusya

Enlem: 45-02N, Boylam: 039-09E, yükseklik: 33 m

Güncel hava durumu gözlemi

Rapor saat 12:00 UTC de 36 dakika önce yapıldı.
Rüzgar batıdan 4 kt ve 14 kt'a kadar ani rüzgarlar
Sıcaklık 20°C
Nem 32%
Basınç 1027 hPa
Görüş mesafesi 10 km veya daha fazla
1500 m altında bulut yok ve kümülonimbus yok

METAR: URKK 241200Z 27002G07MPS CAVOK 20/03 Q1027 R23L/CLRD70 NOSIG RMK QFE767

Saat: 15:36 (12:36 UTC)

Tahmin

Rapor saat 10:48 UTC de 1 saat ve 48 dakika önce yapıldı.
Ayın 24'si saat 12 UTC'den ayın 25'si saat 12 UTC'ye kadar geçerli Tahmin
Rüzgar güneydan 6 kt ve 16 kt'a kadar ani rüzgarlar
Görüş mesafesi 10 km veya daha fazla
4000 ft yükseklikte parçalı bulutlu
Geçici
ayın 24'si saat 18 UTC'den ayın 25'si saat 06 UTC'ye kadar
Görüş mesafesi: 3100 m
1100 ft yükseklikte parçalı bulutlu
Pus

TAF: URKK 241048Z 2412/2512 17003G08MPS 9999 SCT040 TEMPO 2418/2506 3100 BR SCT011

4.000'den fazla havaalanı için hava durumu gözlemleri ve tahminleri (METAR ve TAF raporları).

Kullanılabilir istasyonlar harita üzerinde sarı ve kırmızı noktalarla gösterilir.

İstasyonun adını görmek için fareyi noktanın üzerinde gezdirin.

Sonrasında hava gözlem ve tahminlerini görmek için tıklayın.

Haritayı değiştirmek için: yaklaştırmak için siyah artı işaretli yeşil düğmeye ve uzaklaştırmak için de eksi işaretli düğmeye hızla tıklayın; bitişik haritalar için yeşil okları kullanın.


METAR-TAF: